KDUJ/DUJ METAR and TAF weather

Enter ICAO airport designator
Station Type Date Time Source
KDUJ METAR 2018/01/17 05:53 UTC NOAA

KDUJ 170553Z AUTO 27012KT 6SM HZ BKN019 M14/M17 A3033 RMK AO2 SLP305 60000 T11441172 11050 21144 51006


Station Type Date Time Source
KDUJ Decoded METAR 2018/01/17 05:53 UTC NOAA

DU BOIS-JEFFERSON COUNTY, PA, United States (KDUJ) 41-11N 078-53W
Jan 17, 2018 - 12:53 AM EST / 2018.01.17 0553 UTC
Wind: from the W (270 degrees) at 14 MPH (12 KT):0
Visibility: 6 mile(s):0
Sky conditions: mostly cloudy
Weather: haze
Temperature: 6.1 F (-14.4 C)
Windchill: -11 F (-24 C):2
Dew Point: 1.0 F (-17.2 C)
Relative Humidity: 79%
Pressure (altimeter): 30.33 in. Hg (1027 hPa)
Pressure tendency: 0.02 inches (0.6 hPa) higher than three hours ago
ob: KDUJ 170553Z AUTO 27012KT 6SM HZ BKN019 M14/M17 A3033 RMK AO2 SLP305 60000 T11441172 11050 21144 51006
cycle: 6

Station Type Date Time Source
KDUJ TAF 2018/01/17 06:22 UTC NOAA

TAF KDUJ 170520Z 1706/1806 27005KT P6SM -SN OVC015
FM172200 25008KT P6SM BKN025


Example: see airport list